ENGLEBRIGHT (USACE) (ENG)

Elevation: 551' · YUBA R basin · Operator: US Army Corps of Engineers

Provisional data, subject to change.
Query executed Wednesday at 4:42:26   clock

Select a sensor type for a plot of data.
Note: Reservoir Flows are daily averages.

Earlier

Date RES ELE    STORAGE    RES CHG    OUTFLOW    INFLOW    PPT INC   
 FEET   AF   AF   CFS   CFS   INCHES  
04/05/2016 522.79 66594 -654 -- 2391 0.00
04/06/2016 521.73 65767 -827 -- 2302 0.00
04/07/2016 521.49 65580 -187 -- 2709 0.00
04/08/2016 521.70 65743 163 -- 3342 0.00
04/09/2016 522.03 66000 257 -- 3729 0.01
04/10/2016 522.34 66242 242 -- 3777 0.15
04/11/2016 522.58 66430 188 -- 3849 0.00
04/12/2016 521.32 65449 -981 -- 3251 0.00
04/13/2016 519.75 64242 -1207 -- 3137 0.00
04/14/2016 518.98 63656 -586 -- 3452 0.18
04/15/2016 518.31 63150 -506 -- 3784 0.00
04/16/2016 517.70 62691 -459 -- 3802 0.00
04/17/2016 517.45 62504 -187 -- 3929 0.00
04/18/2016 518.62 63384 880 -- 4274 0.00
04/19/2016 520.88 65109 1725 -- 4702 0.00
04/20/2016 522.60 66445 1336 -- 4509 0.00
04/21/2016 522.63 66469 24 -- 3850 0.00
04/22/2016 521.78 65805 -664 -- 3311 0.78
04/23/2016 522.10 66055 250 -- 3733 0.00
04/24/2016 520.35 64701 -- -- 2798 0.00
04/25/2016 519.25 63861 -840 -- 2942 0.00
04/26/2016 517.65 62654 -1207 -- 2635 0.00
04/27/2016 518.33 63165 511 -- 3300 0.00
04/28/2016 519.94 64387 1222 -- 3452 0.00
04/29/2016 519.47 64028 -359 -- 2711 0.00
04/30/2016 517.83 62789 -1239 -- 2634 0.00
05/01/2016 518.72 63459 670 -- 3659 0.00
05/02/2016 520.53 64839 1380 -- 3976 0.00
05/03/2016 521.07 65255 416 -- -- 0.00
05/04/2016 -- -- -- -- -- --

Later | Latest

Warning! This data is preliminary and subject to revision.

Show ENG Map | Plot ENG Data | 1 Month ENG Data | Real-Time ENG Data | ENG Info